createdAt,value
2018-08-03T00:00:07.823Z,26.00
2018-08-03T00:05:04.958Z,26.00
2018-08-03T00:07:33.681Z,25.90
2018-08-03T00:12:30.863Z,25.90
2018-08-03T00:15:00.620Z,25.80
2018-08-03T00:17:29.341Z,25.80
2018-08-03T00:22:26.517Z,25.80
2018-08-03T00:24:55.264Z,25.80
2018-08-03T00:27:24.006Z,25.80
2018-08-03T00:29:52.765Z,25.80
2018-08-03T00:32:21.528Z,25.80
2018-08-03T00:34:50.281Z,25.70
2018-08-03T00:37:19.042Z,25.60
2018-08-03T00:39:47.838Z,25.60
2018-08-03T00:42:16.499Z,25.60
2018-08-03T00:44:45.287Z,25.50
2018-08-03T00:47:14.286Z,25.40
2018-08-03T00:49:43.004Z,25.40
2018-08-03T00:52:11.721Z,25.40
2018-08-03T00:54:40.471Z,25.40
2018-08-03T00:57:09.980Z,25.40
2018-08-03T00:59:38.653Z,25.40
2018-08-03T01:02:07.338Z,25.40
2018-08-03T01:09:33.000Z,25.30
2018-08-03T01:12:01.758Z,25.30
2018-08-03T01:16:59.780Z,25.30
2018-08-03T01:19:28.533Z,25.30
2018-08-03T01:21:57.269Z,25.20
2018-08-03T01:24:25.979Z,25.20
2018-08-03T01:26:54.704Z,25.10
2018-08-03T01:29:23.449Z,25.10
2018-08-03T01:31:52.218Z,25.10
2018-08-03T01:34:20.933Z,25.00
2018-08-03T01:36:49.699Z,25.00
2018-08-03T01:39:18.441Z,25.00
2018-08-03T01:44:15.666Z,24.90
2018-08-03T01:46:44.409Z,24.90
2018-08-03T01:49:13.182Z,24.90
2018-08-03T01:51:41.878Z,24.80
2018-08-03T01:54:10.601Z,24.80
2018-08-03T01:56:39.337Z,24.80
2018-08-03T01:59:08.144Z,24.80
2018-08-03T02:01:36.850Z,24.80
2018-08-03T02:04:05.570Z,24.80
2018-08-03T02:06:34.910Z,24.70
2018-08-03T02:09:05.484Z,24.60
2018-08-03T02:11:34.249Z,24.60
2018-08-03T02:14:02.966Z,24.50
2018-08-03T02:16:31.730Z,24.40
2018-08-03T02:19:00.488Z,24.30
2018-08-03T02:23:57.674Z,24.20
2018-08-03T02:28:54.872Z,24.30
2018-08-03T02:31:23.606Z,24.30
2018-08-03T02:33:52.359Z,24.20
2018-08-03T02:36:21.615Z,24.20
2018-08-03T02:38:50.347Z,24.20
2018-08-03T02:41:19.054Z,24.10
2018-08-03T02:43:47.792Z,24.10
2018-08-03T02:46:16.502Z,24.20
2018-08-03T02:48:45.201Z,24.20
2018-08-03T02:51:17.098Z,24.10
2018-08-03T02:53:45.805Z,24.20
2018-08-03T02:56:14.604Z,24.20
2018-08-03T02:58:43.303Z,24.10
2018-08-03T03:01:12.069Z,24.00
2018-08-03T03:03:40.781Z,24.00
2018-08-03T03:06:09.472Z,24.00
2018-08-03T03:13:35.440Z,24.00
2018-08-03T03:16:04.165Z,24.00
2018-08-03T03:21:01.370Z,23.90
2018-08-03T03:23:30.116Z,23.90
2018-08-03T03:25:58.865Z,23.90
2018-08-03T03:28:27.645Z,23.90
2018-08-03T03:30:56.411Z,23.80
2018-08-03T03:33:25.233Z,23.80
2018-08-03T03:35:53.906Z,23.80
2018-08-03T03:38:22.641Z,23.80
2018-08-03T03:40:51.339Z,23.80
2018-08-03T03:43:20.274Z,23.80
2018-08-03T03:45:49.002Z,23.80
2018-08-03T03:48:17.745Z,23.80
2018-08-03T03:50:46.465Z,23.80
2018-08-03T03:53:15.200Z,23.70
2018-08-03T03:55:43.978Z,23.70
2018-08-03T04:00:41.157Z,23.60
2018-08-03T04:03:09.933Z,23.60
2018-08-03T04:05:38.711Z,23.50
2018-08-03T04:08:07.448Z,23.50
2018-08-03T04:10:36.197Z,23.50
2018-08-03T04:13:04.940Z,23.50
2018-08-03T04:15:33.714Z,23.50
2018-08-03T04:20:30.937Z,23.60
2018-08-03T04:22:59.678Z,23.70
2018-08-03T04:30:25.374Z,23.80
2018-08-03T04:32:54.155Z,23.80
2018-08-03T04:42:48.157Z,23.90
2018-08-03T04:45:16.903Z,23.90
2018-08-03T04:47:45.670Z,24.00
2018-08-03T04:50:14.403Z,24.00
2018-08-03T04:52:43.711Z,24.10
2018-08-03T05:05:06.216Z,24.00
2018-08-03T05:07:34.943Z,24.00
2018-08-03T05:10:03.726Z,24.00
2018-08-03T05:15:00.897Z,24.00
2018-08-03T05:17:29.653Z,23.90
2018-08-03T05:19:58.366Z,23.90
2018-08-03T05:22:27.116Z,23.90
2018-08-03T05:24:55.829Z,24.00
2018-08-03T05:29:52.924Z,24.00
2018-08-03T05:32:21.664Z,24.00
2018-08-03T05:34:50.389Z,24.10
2018-08-03T05:37:19.138Z,24.00
2018-08-03T05:39:47.897Z,24.20
2018-08-03T05:42:16.624Z,24.30
2018-08-03T05:44:45.389Z,24.40
2018-08-03T05:47:14.105Z,24.80
2018-08-03T05:49:42.825Z,25.80
2018-08-03T05:52:11.570Z,25.90
2018-08-03T05:54:40.317Z,29.20
2018-08-03T05:57:09.050Z,30.50
2018-08-03T05:59:37.809Z,31.90
2018-08-03T06:02:06.625Z,32.80
2018-08-03T06:04:35.361Z,33.90
2018-08-03T06:07:04.057Z,34.40
2018-08-03T06:09:33.691Z,34.70
2018-08-03T06:12:02.368Z,35.70
2018-08-03T17:27:09.253Z,34.60
2018-08-03T17:29:37.985Z,34.70
2018-08-03T17:32:07.214Z,34.50
2018-08-03T17:37:04.309Z,34.50
2018-08-03T17:39:33.048Z,34.40
2018-08-03T17:42:01.764Z,34.30
2018-08-03T17:46:58.942Z,34.30
2018-08-03T17:51:56.302Z,34.20
2018-08-03T17:54:25.010Z,34.10
2018-08-03T17:56:53.698Z,34.10
2018-08-03T18:01:50.929Z,34.00
2018-08-03T18:04:19.640Z,33.90
2018-08-03T18:11:45.286Z,33.70
2018-08-03T18:16:42.979Z,33.60
2018-08-03T18:26:37.623Z,33.30
2018-08-03T18:29:06.474Z,33.30
2018-08-03T18:34:03.633Z,33.20
2018-08-03T18:36:32.480Z,33.10
2018-08-03T18:41:29.936Z,32.90
2018-08-03T18:43:58.703Z,32.90
2018-08-03T18:46:27.512Z,32.70
2018-08-03T18:51:24.984Z,32.70
2018-08-03T18:58:51.009Z,32.50
2018-08-03T19:13:42.104Z,32.10
2018-08-03T19:16:11.690Z,32.00
2018-08-03T19:23:37.812Z,31.90
2018-08-03T19:31:04.960Z,31.70
2018-08-03T19:38:30.945Z,31.50
2018-08-03T19:48:25.127Z,31.30
2018-08-03T19:58:19.046Z,31.00
2018-08-03T20:03:16.174Z,30.80
2018-08-03T20:20:39.281Z,30.60
2018-08-03T20:23:08.022Z,30.50
2018-08-03T20:30:33.781Z,30.40
2018-08-03T20:40:27.794Z,30.10
2018-08-03T20:47:53.339Z,30.10
2018-08-03T20:50:22.046Z,30.00
2018-08-03T20:52:50.765Z,29.90
2018-08-03T20:55:19.603Z,29.90
2018-08-03T20:57:48.763Z,29.80
2018-08-03T21:00:17.439Z,29.80
2018-08-03T21:05:14.553Z,29.70
2018-08-03T21:07:43.250Z,29.60
2018-08-03T21:12:40.332Z,29.50
2018-08-03T21:15:09.693Z,29.50
2018-08-03T21:25:04.979Z,29.20
2018-08-03T21:30:02.100Z,29.10
2018-08-03T21:32:30.834Z,29.10
2018-08-03T21:39:56.444Z,28.90
2018-08-03T21:42:26.032Z,28.90
2018-08-03T21:44:54.768Z,28.90
2018-08-03T21:47:23.532Z,28.90
2018-08-03T21:52:21.525Z,28.80
2018-08-03T21:57:18.712Z,28.70
2018-08-03T22:04:44.399Z,28.50
2018-08-03T22:07:13.117Z,28.50
2018-08-03T22:09:41.818Z,28.50
2018-08-03T22:14:38.960Z,28.40
2018-08-03T22:22:04.549Z,28.20
2018-08-03T22:24:33.416Z,28.20
2018-08-03T22:29:30.426Z,28.10
2018-08-03T22:31:59.145Z,28.00
2018-08-03T22:36:56.249Z,28.00
2018-08-03T22:39:24.953Z,27.90
2018-08-03T22:41:53.648Z,27.90
2018-08-03T22:44:22.377Z,27.80
2018-08-03T22:46:51.207Z,27.80
2018-08-03T22:54:16.795Z,27.70
2018-08-03T22:56:45.461Z,27.70
2018-08-03T23:01:42.602Z,27.60
2018-08-03T23:04:11.970Z,27.50
2018-08-03T23:06:40.637Z,27.50
2018-08-03T23:09:09.878Z,27.50
2018-08-03T23:14:07.173Z,27.40
2018-08-03T23:16:35.860Z,27.40
2018-08-03T23:19:04.628Z,27.30
2018-08-03T23:31:26.986Z,27.20
2018-08-03T23:33:55.699Z,27.10
2018-08-03T23:41:22.193Z,27.10
2018-08-03T23:43:51.041Z,27.00
2018-08-03T23:46:19.777Z,27.00
2018-08-03T23:48:48.463Z,26.90
2018-08-03T23:51:17.170Z,26.90
2018-08-03T23:56:14.260Z,26.80
